sensor_id;sensor_type;location;lat;lon;timestamp;temperature;humidity
29453;DHT22;16424;50.956;5.320;2023-03-14T00:02:10;12.00;99.90
29453;DHT22;16424;50.956;5.320;2023-03-14T00:04:36;12.00;99.90
29453;DHT22;16424;50.956;5.320;2023-03-14T00:07:03;12.00;99.90
29453;DHT22;16424;50.956;5.320;2023-03-14T00:09:29;12.10;99.90
29453;DHT22;16424;50.956;5.320;2023-03-14T00:11:55;12.00;99.90
29453;DHT22;16424;50.956;5.320;2023-03-14T00:14:21;11.90;99.90
29453;DHT22;16424;50.956;5.320;2023-03-14T00:16:47;11.90;99.90
29453;DHT22;16424;50.956;5.320;2023-03-14T00:19:12;11.80;99.90
29453;DHT22;16424;50.956;5.320;2023-03-14T00:21:38;11.90;99.90
29453;DHT22;16424;50.956;5.320;2023-03-14T00:24:04;11.80;99.90
29453;DHT22;16424;50.956;5.320;2023-03-14T00:26:29;11.70;99.90
29453;DHT22;16424;50.956;5.320;2023-03-14T00:28:55;11.80;99.90
29453;DHT22;16424;50.956;5.320;2023-03-14T00:31:21;11.80;99.90
29453;DHT22;16424;50.956;5.320;2023-03-14T00:33:47;11.90;99.90
29453;DHT22;16424;50.956;5.320;2023-03-14T00:36:15;11.80;99.90
29453;DHT22;16424;50.956;5.320;2023-03-14T00:38:43;11.80;99.90
29453;DHT22;16424;50.956;5.320;2023-03-14T00:41:11;11.80;99.90
29453;DHT22;16424;50.956;5.320;2023-03-14T00:43:37;11.90;99.90
29453;DHT22;16424;50.956;5.320;2023-03-14T00:46:03;11.90;99.90
29453;DHT22;16424;50.956;5.320;2023-03-14T00:48:28;12.00;99.90
29453;DHT22;16424;50.956;5.320;2023-03-14T00:50:54;12.00;99.90
29453;DHT22;16424;50.956;5.320;2023-03-14T00:53:20;12.00;99.90
29453;DHT22;16424;50.956;5.320;2023-03-14T00:55:46;12.00;99.90
29453;DHT22;16424;50.956;5.320;2023-03-14T00:58:13;12.00;99.90
29453;DHT22;16424;50.956;5.320;2023-03-14T01:00:40;12.00;99.90
29453;DHT22;16424;50.956;5.320;2023-03-14T01:03:06;11.90;99.90
29453;DHT22;16424;50.956;5.320;2023-03-14T01:05:32;11.80;99.90
29453;DHT22;16424;50.956;5.320;2023-03-14T01:07:57;11.70;99.90
29453;DHT22;16424;50.956;5.320;2023-03-14T01:10:23;11.80;99.90
29453;DHT22;16424;50.956;5.320;2023-03-14T01:12:49;11.80;99.90
29453;DHT22;16424;50.956;5.320;2023-03-14T01:15:15;11.90;99.90
29453;DHT22;16424;50.956;5.320;2023-03-14T01:17:40;11.90;99.90
29453;DHT22;16424;50.956;5.320;2023-03-14T01:20:08;11.90;99.90
29453;DHT22;16424;50.956;5.320;2023-03-14T01:22:35;12.00;99.90
29453;DHT22;16424;50.956;5.320;2023-03-14T01:25:01;12.00;99.90
29453;DHT22;16424;50.956;5.320;2023-03-14T01:27:30;11.70;99.90
29453;DHT22;16424;50.956;5.320;2023-03-14T01:29:55;11.80;99.90
29453;DHT22;16424;50.956;5.320;2023-03-14T01:32:21;11.80;99.90
29453;DHT22;16424;50.956;5.320;2023-03-14T01:34:46;11.80;99.90
29453;DHT22;16424;50.956;5.320;2023-03-14T01:37:12;11.80;99.90
29453;DHT22;16424;50.956;5.320;2023-03-14T01:39:38;11.80;99.90
29453;DHT22;16424;50.956;5.320;2023-03-14T01:42:03;11.80;99.90
29453;DHT22;16424;50.956;5.320;2023-03-14T01:47:18;11.90;99.90
29453;DHT22;16424;50.956;5.320;2023-03-14T01:49:47;11.70;99.90
29453;DHT22;16424;50.956;5.320;2023-03-14T01:55:14;11.80;99.90
29453;DHT22;16424;50.956;5.320;2023-03-14T01:57:44;11.90;99.90
29453;DHT22;16424;50.956;5.320;2023-03-14T02:00:17;11.90;99.90
29453;DHT22;16424;50.956;5.320;2023-03-14T02:03:05;11.90;99.90
29453;DHT22;16424;50.956;5.320;2023-03-14T02:05:34;11.80;99.90
29453;DHT22;16424;50.956;5.320;2023-03-14T02:08:01;11.60;99.90
29453;DHT22;16424;50.956;5.320;2023-03-14T02:10:30;11.60;99.90
29453;DHT22;16424;50.956;5.320;2023-03-14T02:13:00;11.60;99.90
29453;DHT22;16424;50.956;5.320;2023-03-14T02:15:26;11.70;99.90
29453;DHT22;16424;50.956;5.320;2023-03-14T02:17:52;11.70;99.90
29453;DHT22;16424;50.956;5.320;2023-03-14T02:20:26;11.70;99.90
29453;DHT22;16424;50.956;5.320;2023-03-14T02:22:53;11.70;99.90
29453;DHT22;16424;50.956;5.320;2023-03-14T02:25:55;11.60;99.90
29453;DHT22;16424;50.956;5.320;2023-03-14T02:28:23;11.60;99.90
29453;DHT22;16424;50.956;5.320;2023-03-14T02:30:49;11.70;99.90
29453;DHT22;16424;50.956;5.320;2023-03-14T02:33:17;11.70;99.90
29453;DHT22;16424;50.956;5.320;2023-03-14T02:35:59;11.60;99.90
29453;DHT22;16424;50.956;5.320;2023-03-14T02:38:33;11.50;99.90
29453;DHT22;16424;50.956;5.320;2023-03-14T02:40:59;11.50;99.90
29453;DHT22;16424;50.956;5.320;2023-03-14T02:43:25;11.30;99.90
29453;DHT22;16424;50.956;5.320;2023-03-14T02:45:51;11.20;99.90
29453;DHT22;16424;50.956;5.320;2023-03-14T02:48:28;11.10;99.90
29453;DHT22;16424;50.956;5.320;2023-03-14T02:50:59;11.10;99.90
29453;DHT22;16424;50.956;5.320;2023-03-14T02:53:30;11.10;99.90
29453;DHT22;16424;50.956;5.320;2023-03-14T02:55:57;11.10;99.90
29453;DHT22;16424;50.956;5.320;2023-03-14T02:58:23;11.00;99.90
29453;DHT22;16424;50.956;5.320;2023-03-14T03:00:49;11.00;99.90
29453;DHT22;16424;50.956;5.320;2023-03-14T03:03:16;11.00;99.90
29453;DHT22;16424;50.956;5.320;2023-03-14T03:05:41;10.70;99.90
29453;DHT22;16424;50.956;5.320;2023-03-14T03:08:10;10.90;99.90
29453;DHT22;16424;50.956;5.320;2023-03-14T03:10:36;10.80;99.90
29453;DHT22;16424;50.956;5.320;2023-03-14T03:13:02;10.80;99.90
29453;DHT22;16424;50.956;5.320;2023-03-14T03:15:28;10.80;99.90
29453;DHT22;16424;50.956;5.320;2023-03-14T03:17:54;10.70;99.90
29453;DHT22;16424;50.956;5.320;2023-03-14T03:20:19;10.60;99.90
29453;DHT22;16424;50.956;5.320;2023-03-14T03:22:45;10.60;99.90
29453;DHT22;16424;50.956;5.320;2023-03-14T03:25:11;10.70;99.90
29453;DHT22;16424;50.956;5.320;2023-03-14T03:27:37;10.60;99.90
29453;DHT22;16424;50.956;5.320;2023-03-14T03:30:06;10.60;99.90
29453;DHT22;16424;50.956;5.320;2023-03-14T03:32:32;10.70;99.90
29453;DHT22;16424;50.956;5.320;2023-03-14T03:34:58;10.80;99.90
29453;DHT22;16424;50.956;5.320;2023-03-14T03:37:23;10.80;99.90
29453;DHT22;16424;50.956;5.320;2023-03-14T03:39:54;10.70;99.90
29453;DHT22;16424;50.956;5.320;2023-03-14T03:42:19;10.80;99.90
29453;DHT22;16424;50.956;5.320;2023-03-14T03:44:45;10.70;99.90
29453;DHT22;16424;50.956;5.320;2023-03-14T03:47:11;10.50;99.90
29453;DHT22;16424;50.956;5.320;2023-03-14T03:49:37;10.50;99.90
29453;DHT22;16424;50.956;5.320;2023-03-14T03:52:02;10.50;99.90
29453;DHT22;16424;50.956;5.320;2023-03-14T03:54:28;10.60;99.90
29453;DHT22;16424;50.956;5.320;2023-03-14T03:56:56;10.60;99.90
29453;DHT22;16424;50.956;5.320;2023-03-14T03:59:22;10.50;99.90
29453;DHT22;16424;50.956;5.320;2023-03-14T04:01:48;10.60;99.90
29453;DHT22;16424;50.956;5.320;2023-03-14T04:04:13;10.60;99.90
29453;DHT22;16424;50.956;5.320;2023-03-14T04:06:39;10.70;99.90
29453;DHT22;16424;50.956;5.320;2023-03-14T04:09:10;10.80;99.90
29453;DHT22;16424;50.956;5.320;2023-03-14T04:11:35;10.80;99.90
29453;DHT22;16424;50.956;5.320;2023-03-14T04:14:03;10.80;99.90
29453;DHT22;16424;50.956;5.320;2023-03-14T04:16:29;10.60;99.90
29453;DHT22;16424;50.956;5.320;2023-03-14T04:18:57;10.70;99.90
29453;DHT22;16424;50.956;5.320;2023-03-14T04:21:23;10.60;99.90
29453;DHT22;16424;50.956;5.320;2023-03-14T04:23:49;10.60;99.90
29453;DHT22;16424;50.956;5.320;2023-03-14T04:26:15;10.60;99.90
29453;DHT22;16424;50.956;5.320;2023-03-14T04:28:41;10.70;99.90
29453;DHT22;16424;50.956;5.320;2023-03-14T04:31:08;10.70;99.90
29453;DHT22;16424;50.956;5.320;2023-03-14T04:33:34;10.70;99.90
29453;DHT22;16424;50.956;5.320;2023-03-14T04:36:01;10.80;99.90
29453;DHT22;16424;50.956;5.320;2023-03-14T04:38:27;10.80;99.90
29453;DHT22;16424;50.956;5.320;2023-03-14T04:40:53;10.80;99.90
29453;DHT22;16424;50.956;5.320;2023-03-14T04:43:18;10.80;99.90
29453;DHT22;16424;50.956;5.320;2023-03-14T04:45:44;10.80;99.90
29453;DHT22;16424;50.956;5.320;2023-03-14T04:48:10;10.70;99.90
29453;DHT22;16424;50.956;5.320;2023-03-14T04:50:35;10.60;99.90
29453;DHT22;16424;50.956;5.320;2023-03-14T04:53:01;10.60;99.90
29453;DHT22;16424;50.956;5.320;2023-03-14T04:55:27;10.70;99.90
29453;DHT22;16424;50.956;5.320;2023-03-14T04:57:52;10.60;99.90
29453;DHT22;16424;50.956;5.320;2023-03-14T05:00:18;10.50;99.90
29453;DHT22;16424;50.956;5.320;2023-03-14T05:02:44;10.60;99.90
29453;DHT22;16424;50.956;5.320;2023-03-14T05:05:10;10.70;99.90
29453;DHT22;16424;50.956;5.320;2023-03-14T05:07:36;10.90;99.90
29453;DHT22;16424;50.956;5.320;2023-03-14T05:10:01;10.80;99.90
29453;DHT22;16424;50.956;5.320;2023-03-14T05:12:27;10.90;99.90
29453;DHT22;16424;50.956;5.320;2023-03-14T05:14:53;10.90;99.90
29453;DHT22;16424;50.956;5.320;2023-03-14T05:17:19;10.80;99.90
29453;DHT22;16424;50.956;5.320;2023-03-14T05:19:45;10.90;99.90
29453;DHT22;16424;50.956;5.320;2023-03-14T05:22:11;10.80;99.90
29453;DHT22;16424;50.956;5.320;2023-03-14T05:24:37;10.80;99.90
29453;DHT22;16424;50.956;5.320;2023-03-14T05:27:04;10.80;99.90
29453;DHT22;16424;50.956;5.320;2023-03-14T05:29:29;10.80;99.90
29453;DHT22;16424;50.956;5.320;2023-03-14T05:31:55;11.00;99.90
29453;DHT22;16424;50.956;5.320;2023-03-14T05:34:21;11.00;99.90
29453;DHT22;16424;50.956;5.320;2023-03-14T05:36:47;11.00;99.90
29453;DHT22;16424;50.956;5.320;2023-03-14T05:39:12;10.90;99.90
29453;DHT22;16424;50.956;5.320;2023-03-14T05:41:38;10.90;99.90
29453;DHT22;16424;50.956;5.320;2023-03-14T05:44:04;10.90;99.90
29453;DHT22;16424;50.956;5.320;2023-03-14T05:46:29;10.80;99.90
29453;DHT22;16424;50.956;5.320;2023-03-14T05:48:58;10.80;99.90
29453;DHT22;16424;50.956;5.320;2023-03-14T05:51:25;10.90;99.90
29453;DHT22;16424;50.956;5.320;2023-03-14T05:53:51;10.90;99.90
29453;DHT22;16424;50.956;5.320;2023-03-14T05:56:17;11.00;99.90
29453;DHT22;16424;50.956;5.320;2023-03-14T05:58:42;11.10;99.90
29453;DHT22;16424;50.956;5.320;2023-03-14T06:01:08;11.00;99.90
29453;DHT22;16424;50.956;5.320;2023-03-14T06:03:34;11.00;99.90
29453;DHT22;16424;50.956;5.320;2023-03-14T06:06:00;10.90;99.90
29453;DHT22;16424;50.956;5.320;2023-03-14T06:08:26;10.90;99.90
29453;DHT22;16424;50.956;5.320;2023-03-14T06:10:52;10.90;99.90
29453;DHT22;16424;50.956;5.320;2023-03-14T06:13:19;10.90;99.90
29453;DHT22;16424;50.956;5.320;2023-03-14T06:15:45;10.90;99.90
29453;DHT22;16424;50.956;5.320;2023-03-14T06:18:10;10.90;99.90
29453;DHT22;16424;50.956;5.320;2023-03-14T06:20:38;11.00;99.90
29453;DHT22;16424;50.956;5.320;2023-03-14T06:23:07;10.90;99.90
29453;DHT22;16424;50.956;5.320;2023-03-14T06:25:35;11.10;99.90
29453;DHT22;16424;50.956;5.320;2023-03-14T06:28:01;11.00;99.90
29453;DHT22;16424;50.956;5.320;2023-03-14T06:30:27;11.00;99.90
29453;DHT22;16424;50.956;5.320;2023-03-14T06:32:53;11.00;99.90
29453;DHT22;16424;50.956;5.320;2023-03-14T06:35:19;11.00;99.90
29453;DHT22;16424;50.956;5.320;2023-03-14T06:37:45;11.20;99.90
29453;DHT22;16424;50.956;5.320;2023-03-14T06:40:11;11.20;99.90
29453;DHT22;16424;50.956;5.320;2023-03-14T06:42:46;11.20;99.90
29453;DHT22;16424;50.956;5.320;2023-03-14T06:45:13;11.10;99.90
29453;DHT22;16424;50.956;5.320;2023-03-14T06:47:38;11.10;99.90
29453;DHT22;16424;50.956;5.320;2023-03-14T06:50:06;11.20;99.90
29453;DHT22;16424;50.956;5.320;2023-03-14T06:52:32;11.30;99.90
29453;DHT22;16424;50.956;5.320;2023-03-14T06:54:59;11.30;99.90
29453;DHT22;16424;50.956;5.320;2023-03-14T06:57:24;11.30;99.90
29453;DHT22;16424;50.956;5.320;2023-03-14T06:59:50;11.30;99.90
29453;DHT22;16424;50.956;5.320;2023-03-14T07:02:16;11.30;99.90
29453;DHT22;16424;50.956;5.320;2023-03-14T07:04:42;11.50;99.90
29453;DHT22;16424;50.956;5.320;2023-03-14T07:07:08;11.50;99.90
29453;DHT22;16424;50.956;5.320;2023-03-14T07:09:34;11.60;99.90
29453;DHT22;16424;50.956;5.320;2023-03-14T07:11:59;11.60;99.90
29453;DHT22;16424;50.956;5.320;2023-03-14T07:14:25;11.70;99.90
29453;DHT22;16424;50.956;5.320;2023-03-14T07:16:51;11.70;99.90
29453;DHT22;16424;50.956;5.320;2023-03-14T07:19:17;11.70;99.90
29453;DHT22;16424;50.956;5.320;2023-03-14T07:21:43;11.60;99.90
29453;DHT22;16424;50.956;5.320;2023-03-14T07:24:09;11.50;99.90
29453;DHT22;16424;50.956;5.320;2023-03-14T07:26:35;11.30;99.90
29453;DHT22;16424;50.956;5.320;2023-03-14T07:29:00;11.30;99.90
29453;DHT22;16424;50.956;5.320;2023-03-14T07:31:28;11.30;99.90
29453;DHT22;16424;50.956;5.320;2023-03-14T07:33:54;11.20;99.90
29453;DHT22;16424;50.956;5.320;2023-03-14T07:36:20;11.10;99.90
29453;DHT22;16424;50.956;5.320;2023-03-14T07:38:46;11.00;99.90
29453;DHT22;16424;50.956;5.320;2023-03-14T07:41:12;11.00;99.90
29453;DHT22;16424;50.956;5.320;2023-03-14T07:43:37;11.00;99.90
29453;DHT22;16424;50.956;5.320;2023-03-14T07:46:03;10.90;99.90
29453;DHT22;16424;50.956;5.320;2023-03-14T07:48:29;10.90;99.90
29453;DHT22;16424;50.956;5.320;2023-03-14T07:50:55;10.90;99.90
29453;DHT22;16424;50.956;5.320;2023-03-14T07:53:22;10.90;99.90
29453;DHT22;16424;50.956;5.320;2023-03-14T07:55:48;10.60;99.90
29453;DHT22;16424;50.956;5.320;2023-03-14T07:58:14;9.70;99.90
29453;DHT22;16424;50.956;5.320;2023-03-14T08:00:40;9.20;99.90
29453;DHT22;16424;50.956;5.320;2023-03-14T08:03:05;9.00;99.90
29453;DHT22;16424;50.956;5.320;2023-03-14T08:05:34;8.60;99.90
29453;DHT22;16424;50.956;5.320;2023-03-14T08:08:00;8.50;99.90
29453;DHT22;16424;50.956;5.320;2023-03-14T08:10:26;8.50;99.90
29453;DHT22;16424;50.956;5.320;2023-03-14T08:12:58;8.50;99.90
29453;DHT22;16424;50.956;5.320;2023-03-14T08:15:25;8.50;99.90
29453;DHT22;16424;50.956;5.320;2023-03-14T08:17:51;8.60;99.90
29453;DHT22;16424;50.956;5.320;2023-03-14T08:20:22;8.50;99.90
29453;DHT22;16424;50.956;5.320;2023-03-14T08:22:49;8.50;99.90
29453;DHT22;16424;50.956;5.320;2023-03-14T08:25:15;8.50;99.90
29453;DHT22;16424;50.956;5.320;2023-03-14T08:27:41;8.40;99.90
29453;DHT22;16424;50.956;5.320;2023-03-14T08:30:09;8.40;99.90
29453;DHT22;16424;50.956;5.320;2023-03-14T08:32:35;8.50;99.90
29453;DHT22;16424;50.956;5.320;2023-03-14T08:35:01;8.40;99.90
29453;DHT22;16424;50.956;5.320;2023-03-14T08:37:27;8.40;99.90
29453;DHT22;16424;50.956;5.320;2023-03-14T08:39:53;8.40;99.90
29453;DHT22;16424;50.956;5.320;2023-03-14T08:42:18;8.30;99.90
29453;DHT22;16424;50.956;5.320;2023-03-14T08:44:44;8.20;99.90
29453;DHT22;16424;50.956;5.320;2023-03-14T08:47:10;8.10;99.90
29453;DHT22;16424;50.956;5.320;2023-03-14T08:49:36;8.10;99.90
29453;DHT22;16424;50.956;5.320;2023-03-14T08:52:04;8.30;99.90
29453;DHT22;16424;50.956;5.320;2023-03-14T08:54:30;8.50;99.90
29453;DHT22;16424;50.956;5.320;2023-03-14T08:56:57;8.60;99.90
29453;DHT22;16424;50.956;5.320;2023-03-14T08:59:23;8.40;99.90
29453;DHT22;16424;50.956;5.320;2023-03-14T09:01:49;8.50;99.90
29453;DHT22;16424;50.956;5.320;2023-03-14T09:04:15;8.30;99.90
29453;DHT22;16424;50.956;5.320;2023-03-14T09:06:41;8.40;99.90
29453;DHT22;16424;50.956;5.320;2023-03-14T09:09:07;8.50;99.90
29453;DHT22;16424;50.956;5.320;2023-03-14T09:11:32;8.50;99.90
29453;DHT22;16424;50.956;5.320;2023-03-14T09:13:58;8.60;99.90
29453;DHT22;16424;50.956;5.320;2023-03-14T09:16:24;8.60;99.90
29453;DHT22;16424;50.956;5.320;2023-03-14T09:18:50;8.70;99.90
29453;DHT22;16424;50.956;5.320;2023-03-14T09:21:18;8.70;99.90
29453;DHT22;16424;50.956;5.320;2023-03-14T09:23:44;8.70;99.90
29453;DHT22;16424;50.956;5.320;2023-03-14T09:26:11;8.70;99.90
29453;DHT22;16424;50.956;5.320;2023-03-14T09:28:36;8.60;99.90
29453;DHT22;16424;50.956;5.320;2023-03-14T09:31:07;8.60;99.90
29453;DHT22;16424;50.956;5.320;2023-03-14T09:33:34;8.60;99.90
29453;DHT22;16424;50.956;5.320;2023-03-14T09:35:59;8.70;99.90
29453;DHT22;16424;50.956;5.320;2023-03-14T09:38:25;8.80;99.90
29453;DHT22;16424;50.956;5.320;2023-03-14T09:40:53;8.80;99.90
29453;DHT22;16424;50.956;5.320;2023-03-14T09:43:21;8.80;99.90
29453;DHT22;16424;50.956;5.320;2023-03-14T09:45:48;8.70;99.90
29453;DHT22;16424;50.956;5.320;2023-03-14T09:48:17;8.80;99.90
29453;DHT22;16424;50.956;5.320;2023-03-14T09:50:56;8.70;99.90
29453;DHT22;16424;50.956;5.320;2023-03-14T09:53:29;8.40;99.90
29453;DHT22;16424;50.956;5.320;2023-03-14T09:55:58;8.30;99.90
29453;DHT22;16424;50.956;5.320;2023-03-14T09:58:25;8.20;99.90
29453;DHT22;16424;50.956;5.320;2023-03-14T10:00:53;8.20;99.90
29453;DHT22;16424;50.956;5.320;2023-03-14T10:03:40;8.00;99.90
29453;DHT22;16424;50.956;5.320;2023-03-14T10:06:13;8.10;99.90
29453;DHT22;16424;50.956;5.320;2023-03-14T10:08:41;8.10;99.90
29453;DHT22;16424;50.956;5.320;2023-03-14T10:11:14;8.10;99.90
29453;DHT22;16424;50.956;5.320;2023-03-14T10:16:28;8.30;99.90
29453;DHT22;16424;50.956;5.320;2023-03-14T10:19:02;8.40;99.90
29453;DHT22;16424;50.956;5.320;2023-03-14T10:21:29;8.40;99.90
29453;DHT22;16424;50.956;5.320;2023-03-14T10:24:16;8.60;99.90
29453;DHT22;16424;50.956;5.320;2023-03-14T10:26:43;8.60;99.90
29453;DHT22;16424;50.956;5.320;2023-03-14T10:29:12;8.50;99.90
29453;DHT22;16424;50.956;5.320;2023-03-14T10:34:26;8.50;99.90
29453;DHT22;16424;50.956;5.320;2023-03-14T10:36:53;8.50;99.90
29453;DHT22;16424;50.956;5.320;2023-03-14T10:42:06;8.50;99.90
29453;DHT22;16424;50.956;5.320;2023-03-14T10:44:37;8.40;99.90
29453;DHT22;16424;50.956;5.320;2023-03-14T10:47:04;8.40;99.90
29453;DHT22;16424;50.956;5.320;2023-03-14T10:49:36;8.40;99.90
29453;DHT22;16424;50.956;5.320;2023-03-14T10:52:22;8.40;99.90
29453;DHT22;16424;50.956;5.320;2023-03-14T10:54:58;8.40;99.90
29453;DHT22;16424;50.956;5.320;2023-03-14T10:57:24;8.50;99.90
29453;DHT22;16424;50.956;5.320;2023-03-14T10:59:51;8.40;99.90
29453;DHT22;16424;50.956;5.320;2023-03-14T11:09:05;8.30;99.90
29453;DHT22;16424;50.956;5.320;2023-03-14T11:11:33;8.20;99.90
29453;DHT22;16424;50.956;5.320;2023-03-14T11:14:11;8.10;99.90
29453;DHT22;16424;50.956;5.320;2023-03-14T11:20:12;8.50;99.90
29453;DHT22;16424;50.956;5.320;2023-03-14T11:22:47;8.60;99.90
29453;DHT22;16424;50.956;5.320;2023-03-14T11:25:35;8.60;99.90
29453;DHT22;16424;50.956;5.320;2023-03-14T11:33:27;8.90;99.90
29453;DHT22;16424;50.956;5.320;2023-03-14T11:36:08;8.80;99.90
29453;DHT22;16424;50.956;5.320;2023-03-14T11:38:49;8.60;99.90
29453;DHT22;16424;50.956;5.320;2023-03-14T11:41:41;8.40;99.90
29453;DHT22;16424;50.956;5.320;2023-03-14T11:46:52;7.70;99.90
29453;DHT22;16424;50.956;5.320;2023-03-14T11:52:04;8.00;99.90
29453;DHT22;16424;50.956;5.320;2023-03-14T11:57:16;8.30;99.90
29453;DHT22;16424;50.956;5.320;2023-03-14T12:07:53;9.40;99.90
29453;DHT22;16424;50.956;5.320;2023-03-14T12:10:24;9.60;99.90
29453;DHT22;16424;50.956;5.320;2023-03-14T12:12:50;9.80;99.90
29453;DHT22;16424;50.956;5.320;2023-03-14T12:15:21;10.00;99.90
29453;DHT22;16424;50.956;5.320;2023-03-14T12:17:54;10.10;99.90
29453;DHT22;16424;50.956;5.320;2023-03-14T12:20:24;9.80;99.90
29453;DHT22;16424;50.956;5.320;2023-03-14T12:22:52;9.60;99.90
29453;DHT22;16424;50.956;5.320;2023-03-14T12:25:26;9.40;99.90
29453;DHT22;16424;50.956;5.320;2023-03-14T12:33:14;7.20;99.90
29453;DHT22;16424;50.956;5.320;2023-03-14T12:35:49;7.30;99.90
29453;DHT22;16424;50.956;5.320;2023-03-14T12:38:41;7.40;99.90
29453;DHT22;16424;50.956;5.320;2023-03-14T12:41:19;7.50;99.90
29453;DHT22;16424;50.956;5.320;2023-03-14T12:43:46;7.20;99.90
29453;DHT22;16424;50.956;5.320;2023-03-14T12:46:22;7.10;99.90
29453;DHT22;16424;50.956;5.320;2023-03-14T12:51:36;7.00;99.90
29453;DHT22;16424;50.956;5.320;2023-03-14T12:57:25;7.00;99.90
29453;DHT22;16424;50.956;5.320;2023-03-14T12:59:56;7.10;99.90
29453;DHT22;16424;50.956;5.320;2023-03-14T13:10:45;7.30;99.90
29453;DHT22;16424;50.956;5.320;2023-03-14T13:13:22;7.60;99.90
29453;DHT22;16424;50.956;5.320;2023-03-14T13:15:55;7.90;99.90
29453;DHT22;16424;50.956;5.320;2023-03-14T13:23:40;8.00;99.90
29453;DHT22;16424;50.956;5.320;2023-03-14T13:26:14;8.10;99.90
29453;DHT22;16424;50.956;5.320;2023-03-14T13:28:41;8.20;99.90
29453;DHT22;16424;50.956;5.320;2023-03-14T13:31:23;8.50;99.90
29453;DHT22;16424;50.956;5.320;2023-03-14T13:34:04;8.60;99.90
29453;DHT22;16424;50.956;5.320;2023-03-14T13:36:31;8.90;99.90
29453;DHT22;16424;50.956;5.320;2023-03-14T13:38:59;8.80;99.90
29453;DHT22;16424;50.956;5.320;2023-03-14T13:41:27;8.90;99.90
29453;DHT22;16424;50.956;5.320;2023-03-14T13:44:03;8.80;99.90
29453;DHT22;16424;50.956;5.320;2023-03-14T13:46:33;8.70;99.90
29453;DHT22;16424;50.956;5.320;2023-03-14T13:49:03;8.70;99.90
29453;DHT22;16424;50.956;5.320;2023-03-14T13:51:29;8.80;99.90
29453;DHT22;16424;50.956;5.320;2023-03-14T13:53:58;8.70;99.90
29453;DHT22;16424;50.956;5.320;2023-03-14T13:56:27;8.70;99.90
29453;DHT22;16424;50.956;5.320;2023-03-14T13:58:53;8.80;99.90
29453;DHT22;16424;50.956;5.320;2023-03-14T14:01:37;8.80;99.90
29453;DHT22;16424;50.956;5.320;2023-03-14T14:04:15;8.80;99.90
29453;DHT22;16424;50.956;5.320;2023-03-14T14:06:47;8.60;99.90
29453;DHT22;16424;50.956;5.320;2023-03-14T14:09:37;8.50;99.90
29453;DHT22;16424;50.956;5.320;2023-03-14T14:12:06;8.60;99.90
29453;DHT22;16424;50.956;5.320;2023-03-14T14:15:26;8.90;99.90
29453;DHT22;16424;50.956;5.320;2023-03-14T14:17:32;9.10;99.90
29453;DHT22;16424;50.956;5.320;2023-03-14T14:20:01;8.70;99.90
29453;DHT22;16424;50.956;5.320;2023-03-14T14:22:29;8.50;99.90
29453;DHT22;16424;50.956;5.320;2023-03-14T14:24:55;8.50;99.90
29453;DHT22;16424;50.956;5.320;2023-03-14T14:27:29;8.60;99.90
29453;DHT22;16424;50.956;5.320;2023-03-14T14:30:03;8.80;99.90
29453;DHT22;16424;50.956;5.320;2023-03-14T14:32:39;8.50;99.90
29453;DHT22;16424;50.956;5.320;2023-03-14T14:35:06;8.10;99.90
29453;DHT22;16424;50.956;5.320;2023-03-14T14:37:42;8.10;99.90
29453;DHT22;16424;50.956;5.320;2023-03-14T14:40:16;8.20;99.90
29453;DHT22;16424;50.956;5.320;2023-03-14T14:42:44;8.00;99.90
29453;DHT22;16424;50.956;5.320;2023-03-14T14:45:14;7.90;99.90
29453;DHT22;16424;50.956;5.320;2023-03-14T14:47:52;7.90;99.90
29453;DHT22;16424;50.956;5.320;2023-03-14T14:50:29;7.90;99.90
29453;DHT22;16424;50.956;5.320;2023-03-14T14:53:31;8.20;99.90
29453;DHT22;16424;50.956;5.320;2023-03-14T14:56:20;8.40;99.90
29453;DHT22;16424;50.956;5.320;2023-03-14T14:58:49;8.20;99.90
29453;DHT22;16424;50.956;5.320;2023-03-14T15:01:18;8.00;99.90
29453;DHT22;16424;50.956;5.320;2023-03-14T15:03:47;8.00;99.90
29453;DHT22;16424;50.956;5.320;2023-03-14T15:06:15;7.90;99.90
29453;DHT22;16424;50.956;5.320;2023-03-14T15:08:43;7.70;99.90
29453;DHT22;16424;50.956;5.320;2023-03-14T15:11:16;7.70;99.90
29453;DHT22;16424;50.956;5.320;2023-03-14T15:13:42;7.80;99.90
29453;DHT22;16424;50.956;5.320;2023-03-14T15:16:12;8.20;99.90
29453;DHT22;16424;50.956;5.320;2023-03-14T15:18:38;8.20;99.90
29453;DHT22;16424;50.956;5.320;2023-03-14T15:21:04;8.10;99.90
29453;DHT22;16424;50.956;5.320;2023-03-14T15:23:29;8.00;99.90
29453;DHT22;16424;50.956;5.320;2023-03-14T15:25:55;8.20;99.90
29453;DHT22;16424;50.956;5.320;2023-03-14T15:28:23;8.20;99.90
29453;DHT22;16424;50.956;5.320;2023-03-14T15:30:51;8.10;99.90
29453;DHT22;16424;50.956;5.320;2023-03-14T15:33:17;7.80;99.90
29453;DHT22;16424;50.956;5.320;2023-03-14T15:35:43;7.50;99.90
29453;DHT22;16424;50.956;5.320;2023-03-14T15:38:13;7.00;99.90
29453;DHT22;16424;50.956;5.320;2023-03-14T15:40:40;6.90;99.90
29453;DHT22;16424;50.956;5.320;2023-03-14T15:43:05;6.90;99.90
29453;DHT22;16424;50.956;5.320;2023-03-14T15:45:31;7.00;99.90
29453;DHT22;16424;50.956;5.320;2023-03-14T15:47:57;7.20;99.90
29453;DHT22;16424;50.956;5.320;2023-03-14T15:50:23;7.30;99.90
29453;DHT22;16424;50.956;5.320;2023-03-14T15:52:51;7.20;99.90
29453;DHT22;16424;50.956;5.320;2023-03-14T15:55:16;7.20;99.90
29453;DHT22;16424;50.956;5.320;2023-03-14T15:57:45;7.30;99.90
29453;DHT22;16424;50.956;5.320;2023-03-14T16:00:17;7.50;99.90
29453;DHT22;16424;50.956;5.320;2023-03-14T16:02:44;7.50;99.90
29453;DHT22;16424;50.956;5.320;2023-03-14T16:05:11;7.50;99.90
29453;DHT22;16424;50.956;5.320;2023-03-14T16:07:38;7.60;99.90
29453;DHT22;16424;50.956;5.320;2023-03-14T16:10:04;7.60;99.90
29453;DHT22;16424;50.956;5.320;2023-03-14T16:12:31;7.70;99.90
29453;DHT22;16424;50.956;5.320;2023-03-14T16:14:57;7.70;99.90
29453;DHT22;16424;50.956;5.320;2023-03-14T16:17:23;7.70;99.90
29453;DHT22;16424;50.956;5.320;2023-03-14T16:19:48;7.70;99.90
29453;DHT22;16424;50.956;5.320;2023-03-14T16:22:14;7.80;99.90
29453;DHT22;16424;50.956;5.320;2023-03-14T16:24:40;7.70;99.90
29453;DHT22;16424;50.956;5.320;2023-03-14T16:27:05;7.80;99.90
29453;DHT22;16424;50.956;5.320;2023-03-14T16:29:31;7.80;99.90
29453;DHT22;16424;50.956;5.320;2023-03-14T16:31:57;7.80;99.90
29453;DHT22;16424;50.956;5.320;2023-03-14T16:34:22;7.90;99.90
29453;DHT22;16424;50.956;5.320;2023-03-14T16:36:48;7.90;99.90
29453;DHT22;16424;50.956;5.320;2023-03-14T16:39:17;7.80;99.90
29453;DHT22;16424;50.956;5.320;2023-03-14T16:41:43;7.70;99.90
29453;DHT22;16424;50.956;5.320;2023-03-14T16:44:09;7.70;99.90
29453;DHT22;16424;50.956;5.320;2023-03-14T16:46:34;7.70;99.90
29453;DHT22;16424;50.956;5.320;2023-03-14T16:49:03;7.60;99.90
29453;DHT22;16424;50.956;5.320;2023-03-14T16:51:28;7.50;99.90
29453;DHT22;16424;50.956;5.320;2023-03-14T16:53:54;7.50;99.90
29453;DHT22;16424;50.956;5.320;2023-03-14T16:56:20;7.40;99.90